Yellowknife Airport
CYZF : now visible

Airfield :











YOU CAN JOIN US ON...

 
LOGIN :

Register | Disclaimer

   EN    FR    IT 

 









Legend :    VFR   Marginal VFR   IFR   Intensive IFR   Very Intensive IFR
Visi :
Ceiling :
>= 8 km
>= 3000ft
5 to 8 km
1000 to 3000 ft
1500m to 5 km
500 to 1000 ft
800 to 1500m
200 to 500 ft
< 800m
< 200 ft
Symbols :   Thunderstorms  Fog  Heavy snow  Heavy precipitations  Wind > 20 kt






- Airport Elevation : 675 ft
- IATA code : YZF


CYZF - Yellowknife

CURRENT METAR :
  • 152300Z 11012KT 15SM BKN022 OVC068 00/M02 A2993 RMK SC7AC1 SLP152

EXPIRED METARs :
  • 152200Z 12010KT 15SM FEW004 OVC020 M00/M02 A2996 RMK SC1SC8 SC TR SLP162
  • 152118Z 11015KT 15SM FEW004 OVC016 M00/M02 A2998 RMK SC1SC7 SLP168
  • 152100Z 11014G20KT 15SM -SN FEW004 OVC016 M00/M02 A2998 RMK SC2SC6 SLP170
  • 152048Z 11013KT 15SM -SN SCT004 OVC025 M01/M02 A2999 RMK SC3SC5 SLP173

TAF AMD TAF CYZF
Valid from the 15 at 13:00 until the 16 at 12:00 UTC


151326Z 1513/1612 10012KT 11/2SM -SN BKN004 OVC030
TEMPO 1513/1520 P6SM -SN SCT004 OVC030
FM152000 13015KT P6SM SCT020 BKN060
TEMPO 1520/1606 4SM -RASN BKN020 OVC040
FM160600 13012KT P6SM SCT020 OVC040
TEMPO 1606/1612 2SM -SN OVC020 RMK NXT FCST BY 151800Z



MET'MAP, your aeronautical weather chart ! - Copyright ORBIFLY December 2007 - Disclaimer

ORBIFLY MET'MAP TEAM :

Programming & Development : Alexandra Zaïnal
Concept & Development : Baudouin d'Aumeries
Co-Development & Prog : Marc-Olivier Méhu
Technical & hardware support : Manuel Goepfert

Contact : metmap@orbifly.com




SOURCES & CREDITS :

   NOAA       Earth
Advisory